sensor_id;sensor_type;location;lat;lon;timestamp;P1;durP1;ratioP1;P2;durP2;ratioP2
15240;SDS011;7723;52.170;9.978;2023-02-26T00:01:24;4.90;;;1.10;;
15240;SDS011;7723;52.170;9.978;2023-02-26T00:03:53;2.97;;;0.97;;
15240;SDS011;7723;52.170;9.978;2023-02-26T00:06:23;2.63;;;0.87;;
15240;SDS011;7723;52.170;9.978;2023-02-26T00:08:51;1.63;;;0.83;;
15240;SDS011;7723;52.170;9.978;2023-02-26T00:11:19;2.87;;;1.00;;
15240;SDS011;7723;52.170;9.978;2023-02-26T00:13:47;3.60;;;1.20;;
15240;SDS011;7723;52.170;9.978;2023-02-26T00:16:18;3.13;;;0.90;;
15240;SDS011;7723;52.170;9.978;2023-02-26T00:18:51;4.07;;;1.03;;
15240;SDS011;7723;52.170;9.978;2023-02-26T00:21:20;2.67;;;0.90;;
15240;SDS011;7723;52.170;9.978;2023-02-26T00:23:50;4.13;;;1.00;;
15240;SDS011;7723;52.170;9.978;2023-02-26T00:26:18;2.40;;;1.03;;
15240;SDS011;7723;52.170;9.978;2023-02-26T00:28:46;2.63;;;1.03;;
15240;SDS011;7723;52.170;9.978;2023-02-26T00:31:14;3.10;;;1.33;;
15240;SDS011;7723;52.170;9.978;2023-02-26T00:33:45;8.07;;;2.23;;
15240;SDS011;7723;52.170;9.978;2023-02-26T00:36:17;5.97;;;2.20;;
15240;SDS011;7723;52.170;9.978;2023-02-26T00:38:52;6.43;;;2.07;;
15240;SDS011;7723;52.170;9.978;2023-02-26T00:41:27;4.23;;;1.90;;
15240;SDS011;7723;52.170;9.978;2023-02-26T00:43:55;5.03;;;1.37;;
15240;SDS011;7723;52.170;9.978;2023-02-26T00:46:25;3.70;;;1.50;;
15240;SDS011;7723;52.170;9.978;2023-02-26T00:48:59;3.63;;;2.00;;
15240;SDS011;7723;52.170;9.978;2023-02-26T00:51:30;2.90;;;1.83;;
15240;SDS011;7723;52.170;9.978;2023-02-26T00:54:08;3.43;;;1.50;;
15240;SDS011;7723;52.170;9.978;2023-02-26T00:56:43;3.03;;;1.27;;
15240;SDS011;7723;52.170;9.978;2023-02-26T00:59:10;2.67;;;1.30;;
15240;SDS011;7723;52.170;9.978;2023-02-26T01:01:37;2.83;;;1.10;;
15240;SDS011;7723;52.170;9.978;2023-02-26T01:04:05;4.07;;;1.43;;
15240;SDS011;7723;52.170;9.978;2023-02-26T01:06:34;4.30;;;0.87;;
15240;SDS011;7723;52.170;9.978;2023-02-26T01:09:10;2.63;;;1.40;;
15240;SDS011;7723;52.170;9.978;2023-02-26T01:11:47;2.80;;;1.27;;
15240;SDS011;7723;52.170;9.978;2023-02-26T01:14:19;3.33;;;1.63;;
15240;SDS011;7723;52.170;9.978;2023-02-26T01:16:48;7.10;;;2.87;;
15240;SDS011;7723;52.170;9.978;2023-02-26T01:19:23;2.37;;;1.30;;
15240;SDS011;7723;52.170;9.978;2023-02-26T01:21:59;4.43;;;1.77;;
15240;SDS011;7723;52.170;9.978;2023-02-26T01:24:33;4.93;;;1.90;;
15240;SDS011;7723;52.170;9.978;2023-02-26T01:27:04;3.17;;;1.20;;
15240;SDS011;7723;52.170;9.978;2023-02-26T01:29:31;1.87;;;1.00;;
15240;SDS011;7723;52.170;9.978;2023-02-26T01:32:00;3.90;;;1.20;;
15240;SDS011;7723;52.170;9.978;2023-02-26T01:34:34;2.30;;;1.20;;
15240;SDS011;7723;52.170;9.978;2023-02-26T01:37:07;4.17;;;1.90;;
15240;SDS011;7723;52.170;9.978;2023-02-26T01:39:51;3.87;;;1.33;;
15240;SDS011;7723;52.170;9.978;2023-02-26T01:42:45;3.60;;;1.80;;
15240;SDS011;7723;52.170;9.978;2023-02-26T01:45:22;4.17;;;1.00;;
15240;SDS011;7723;52.170;9.978;2023-02-26T01:47:59;1.33;;;0.97;;
15240;SDS011;7723;52.170;9.978;2023-02-26T01:50:31;2.57;;;0.97;;
15240;SDS011;7723;52.170;9.978;2023-02-26T01:55:51;1.50;;;0.90;;
15240;SDS011;7723;52.170;9.978;2023-02-26T01:58:22;3.73;;;1.20;;
15240;SDS011;7723;52.170;9.978;2023-02-26T02:00:52;5.23;;;1.30;;
15240;SDS011;7723;52.170;9.978;2023-02-26T02:03:19;3.17;;;1.07;;
15240;SDS011;7723;52.170;9.978;2023-02-26T02:05:51;2.83;;;1.27;;
15240;SDS011;7723;52.170;9.978;2023-02-26T02:08:21;2.27;;;1.10;;
15240;SDS011;7723;52.170;9.978;2023-02-26T02:10:52;3.40;;;1.23;;
15240;SDS011;7723;52.170;9.978;2023-02-26T02:13:25;2.87;;;0.90;;
15240;SDS011;7723;52.170;9.978;2023-02-26T02:16:02;3.23;;;0.80;;
15240;SDS011;7723;52.170;9.978;2023-02-26T02:18:43;1.57;;;0.87;;
15240;SDS011;7723;52.170;9.978;2023-02-26T02:21:34;2.17;;;0.90;;
15240;SDS011;7723;52.170;9.978;2023-02-26T02:24:12;0.97;;;0.73;;
15240;SDS011;7723;52.170;9.978;2023-02-26T02:26:57;1.43;;;0.87;;
15240;SDS011;7723;52.170;9.978;2023-02-26T02:29:40;3.43;;;1.73;;
15240;SDS011;7723;52.170;9.978;2023-02-26T02:32:31;2.30;;;1.03;;
15240;SDS011;7723;52.170;9.978;2023-02-26T02:35:04;1.83;;;0.97;;
15240;SDS011;7723;52.170;9.978;2023-02-26T02:37:37;1.77;;;0.93;;
15240;SDS011;7723;52.170;9.978;2023-02-26T02:40:13;1.17;;;0.80;;
15240;SDS011;7723;52.170;9.978;2023-02-26T02:42:45;3.03;;;0.90;;
15240;SDS011;7723;52.170;9.978;2023-02-26T02:45:19;2.60;;;0.87;;
15240;SDS011;7723;52.170;9.978;2023-02-26T02:47:53;4.80;;;0.97;;
15240;SDS011;7723;52.170;9.978;2023-02-26T02:50:28;3.40;;;0.70;;
15240;SDS011;7723;52.170;9.978;2023-02-26T02:53:00;3.07;;;1.20;;
15240;SDS011;7723;52.170;9.978;2023-02-26T02:55:31;3.27;;;1.20;;
15240;SDS011;7723;52.170;9.978;2023-02-26T02:58:03;2.50;;;0.80;;
15240;SDS011;7723;52.170;9.978;2023-02-26T03:00:35;2.20;;;0.97;;
15240;SDS011;7723;52.170;9.978;2023-02-26T03:03:14;2.13;;;1.00;;
15240;SDS011;7723;52.170;9.978;2023-02-26T03:05:46;4.73;;;1.00;;
15240;SDS011;7723;52.170;9.978;2023-02-26T03:08:14;3.83;;;0.77;;
15240;SDS011;7723;52.170;9.978;2023-02-26T03:10:48;2.63;;;1.00;;
15240;SDS011;7723;52.170;9.978;2023-02-26T03:13:16;5.40;;;1.10;;
15240;SDS011;7723;52.170;9.978;2023-02-26T03:15:46;2.53;;;0.80;;
15240;SDS011;7723;52.170;9.978;2023-02-26T03:18:26;1.03;;;0.80;;
15240;SDS011;7723;52.170;9.978;2023-02-26T03:21:05;1.03;;;0.77;;
15240;SDS011;7723;52.170;9.978;2023-02-26T03:23:39;2.23;;;1.03;;
15240;SDS011;7723;52.170;9.978;2023-02-26T03:26:12;2.00;;;0.73;;
15240;SDS011;7723;52.170;9.978;2023-02-26T03:28:45;3.20;;;0.80;;
15240;SDS011;7723;52.170;9.978;2023-02-26T03:31:19;1.57;;;0.80;;
15240;SDS011;7723;52.170;9.978;2023-02-26T03:33:55;1.23;;;0.77;;
15240;SDS011;7723;52.170;9.978;2023-02-26T03:36:26;3.33;;;1.23;;
15240;SDS011;7723;52.170;9.978;2023-02-26T03:38:59;6.17;;;1.30;;
15240;SDS011;7723;52.170;9.978;2023-02-26T03:41:32;2.03;;;0.80;;
15240;SDS011;7723;52.170;9.978;2023-02-26T03:44:04;5.03;;;1.47;;
15240;SDS011;7723;52.170;9.978;2023-02-26T03:46:38;2.10;;;1.00;;
15240;SDS011;7723;52.170;9.978;2023-02-26T03:49:11;4.20;;;1.00;;
15240;SDS011;7723;52.170;9.978;2023-02-26T03:51:43;3.37;;;1.00;;
15240;SDS011;7723;52.170;9.978;2023-02-26T03:54:13;2.60;;;1.10;;
15240;SDS011;7723;52.170;9.978;2023-02-26T03:56:46;6.27;;;0.90;;
15240;SDS011;7723;52.170;9.978;2023-02-26T03:59:14;1.40;;;0.60;;
15240;SDS011;7723;52.170;9.978;2023-02-26T04:01:43;1.37;;;0.80;;
15240;SDS011;7723;52.170;9.978;2023-02-26T04:04:16;2.73;;;0.90;;
15240;SDS011;7723;52.170;9.978;2023-02-26T04:06:47;4.20;;;1.03;;
15240;SDS011;7723;52.170;9.978;2023-02-26T04:09:17;2.03;;;0.80;;
15240;SDS011;7723;52.170;9.978;2023-02-26T04:11:45;1.00;;;0.90;;
15240;SDS011;7723;52.170;9.978;2023-02-26T04:14:17;1.10;;;0.70;;
15240;SDS011;7723;52.170;9.978;2023-02-26T04:16:44;1.93;;;0.63;;
15240;SDS011;7723;52.170;9.978;2023-02-26T04:19:11;3.17;;;0.80;;
15240;SDS011;7723;52.170;9.978;2023-02-26T04:21:40;4.13;;;1.50;;
15240;SDS011;7723;52.170;9.978;2023-02-26T04:24:08;1.23;;;0.70;;
15240;SDS011;7723;52.170;9.978;2023-02-26T04:26:35;1.73;;;0.87;;
15240;SDS011;7723;52.170;9.978;2023-02-26T04:29:02;2.90;;;1.17;;
15240;SDS011;7723;52.170;9.978;2023-02-26T04:31:29;2.53;;;0.70;;
15240;SDS011;7723;52.170;9.978;2023-02-26T04:33:56;1.20;;;0.80;;
15240;SDS011;7723;52.170;9.978;2023-02-26T04:36:26;3.93;;;1.20;;
15240;SDS011;7723;52.170;9.978;2023-02-26T04:38:58;4.00;;;1.97;;
15240;SDS011;7723;52.170;9.978;2023-02-26T04:41:25;1.93;;;0.67;;
15240;SDS011;7723;52.170;9.978;2023-02-26T04:43:52;2.20;;;0.80;;
15240;SDS011;7723;52.170;9.978;2023-02-26T04:46:19;2.93;;;0.90;;
15240;SDS011;7723;52.170;9.978;2023-02-26T04:48:47;1.70;;;0.70;;
15240;SDS011;7723;52.170;9.978;2023-02-26T04:51:14;3.93;;;1.43;;
15240;SDS011;7723;52.170;9.978;2023-02-26T04:53:42;1.97;;;0.60;;
15240;SDS011;7723;52.170;9.978;2023-02-26T04:56:10;0.97;;;0.70;;
15240;SDS011;7723;52.170;9.978;2023-02-26T04:58:38;0.73;;;0.70;;
15240;SDS011;7723;52.170;9.978;2023-02-26T05:01:05;2.77;;;0.87;;
15240;SDS011;7723;52.170;9.978;2023-02-26T05:03:33;2.17;;;0.90;;
15240;SDS011;7723;52.170;9.978;2023-02-26T05:06:00;2.67;;;1.20;;
15240;SDS011;7723;52.170;9.978;2023-02-26T05:08:27;2.27;;;0.80;;
15240;SDS011;7723;52.170;9.978;2023-02-26T05:10:54;4.27;;;0.77;;
15240;SDS011;7723;52.170;9.978;2023-02-26T05:13:23;1.37;;;0.80;;
15240;SDS011;7723;52.170;9.978;2023-02-26T05:15:51;1.90;;;0.63;;
15240;SDS011;7723;52.170;9.978;2023-02-26T05:18:18;1.20;;;0.73;;
15240;SDS011;7723;52.170;9.978;2023-02-26T05:20:50;2.27;;;0.90;;
15240;SDS011;7723;52.170;9.978;2023-02-26T05:23:18;1.57;;;0.77;;
15240;SDS011;7723;52.170;9.978;2023-02-26T05:25:45;0.93;;;0.73;;
15240;SDS011;7723;52.170;9.978;2023-02-26T05:28:13;2.23;;;0.57;;
15240;SDS011;7723;52.170;9.978;2023-02-26T05:30:42;1.27;;;0.70;;
15240;SDS011;7723;52.170;9.978;2023-02-26T05:33:09;5.10;;;0.90;;
15240;SDS011;7723;52.170;9.978;2023-02-26T05:35:37;2.13;;;1.70;;
15240;SDS011;7723;52.170;9.978;2023-02-26T05:38:05;2.43;;;1.00;;
15240;SDS011;7723;52.170;9.978;2023-02-26T05:40:32;0.70;;;0.50;;
15240;SDS011;7723;52.170;9.978;2023-02-26T05:43:00;1.13;;;0.70;;
15240;SDS011;7723;52.170;9.978;2023-02-26T05:45:27;0.90;;;0.53;;
15240;SDS011;7723;52.170;9.978;2023-02-26T05:47:56;1.90;;;0.90;;
15240;SDS011;7723;52.170;9.978;2023-02-26T05:50:23;1.10;;;0.60;;
15240;SDS011;7723;52.170;9.978;2023-02-26T05:52:51;1.07;;;0.77;;
15240;SDS011;7723;52.170;9.978;2023-02-26T05:55:18;2.80;;;0.70;;
15240;SDS011;7723;52.170;9.978;2023-02-26T05:57:45;5.00;;;0.77;;
15240;SDS011;7723;52.170;9.978;2023-02-26T06:00:13;2.50;;;1.00;;
15240;SDS011;7723;52.170;9.978;2023-02-26T06:02:40;0.80;;;0.70;;
15240;SDS011;7723;52.170;9.978;2023-02-26T06:05:09;1.90;;;0.60;;
15240;SDS011;7723;52.170;9.978;2023-02-26T06:07:37;2.67;;;1.17;;
15240;SDS011;7723;52.170;9.978;2023-02-26T06:10:04;1.17;;;0.60;;
15240;SDS011;7723;52.170;9.978;2023-02-26T06:12:32;1.00;;;0.70;;
15240;SDS011;7723;52.170;9.978;2023-02-26T06:15:00;1.80;;;0.50;;
15240;SDS011;7723;52.170;9.978;2023-02-26T06:17:27;2.33;;;1.00;;
15240;SDS011;7723;52.170;9.978;2023-02-26T06:19:55;1.73;;;0.70;;
15240;SDS011;7723;52.170;9.978;2023-02-26T06:22:25;1.83;;;0.60;;
15240;SDS011;7723;52.170;9.978;2023-02-26T06:24:52;1.57;;;0.83;;
15240;SDS011;7723;52.170;9.978;2023-02-26T06:27:19;2.30;;;0.63;;
15240;SDS011;7723;52.170;9.978;2023-02-26T06:29:47;1.10;;;0.60;;
15240;SDS011;7723;52.170;9.978;2023-02-26T06:32:14;1.07;;;0.67;;
15240;SDS011;7723;52.170;9.978;2023-02-26T06:34:45;0.33;;;0.27;;
15240;SDS011;7723;52.170;9.978;2023-02-26T06:37:12;5.33;;;0.97;;
15240;SDS011;7723;52.170;9.978;2023-02-26T06:39:41;0.90;;;0.50;;
15240;SDS011;7723;52.170;9.978;2023-02-26T06:42:08;1.37;;;0.67;;
15240;SDS011;7723;52.170;9.978;2023-02-26T06:44:35;1.63;;;0.47;;
15240;SDS011;7723;52.170;9.978;2023-02-26T06:47:05;1.27;;;0.60;;
15240;SDS011;7723;52.170;9.978;2023-02-26T06:49:33;3.43;;;0.70;;
15240;SDS011;7723;52.170;9.978;2023-02-26T06:52:00;1.33;;;0.63;;
15240;SDS011;7723;52.170;9.978;2023-02-26T06:54:27;1.00;;;0.50;;
15240;SDS011;7723;52.170;9.978;2023-02-26T06:56:55;1.57;;;0.50;;
15240;SDS011;7723;52.170;9.978;2023-02-26T06:59:23;3.23;;;1.00;;
15240;SDS011;7723;52.170;9.978;2023-02-26T07:01:52;1.03;;;0.70;;
15240;SDS011;7723;52.170;9.978;2023-02-26T07:04:19;1.97;;;0.50;;
15240;SDS011;7723;52.170;9.978;2023-02-26T07:06:46;1.50;;;0.60;;
15240;SDS011;7723;52.170;9.978;2023-02-26T07:09:13;4.80;;;1.10;;
15240;SDS011;7723;52.170;9.978;2023-02-26T07:11:40;1.87;;;1.17;;
15240;SDS011;7723;52.170;9.978;2023-02-26T07:14:09;1.17;;;0.50;;
15240;SDS011;7723;52.170;9.978;2023-02-26T07:16:37;1.77;;;0.50;;
15240;SDS011;7723;52.170;9.978;2023-02-26T07:19:05;1.70;;;0.60;;
15240;SDS011;7723;52.170;9.978;2023-02-26T07:21:32;1.10;;;0.60;;
15240;SDS011;7723;52.170;9.978;2023-02-26T07:23:59;5.13;;;1.07;;
15240;SDS011;7723;52.170;9.978;2023-02-26T07:26:26;3.20;;;0.77;;
15240;SDS011;7723;52.170;9.978;2023-02-26T07:28:57;1.10;;;0.50;;
15240;SDS011;7723;52.170;9.978;2023-02-26T07:31:25;0.80;;;0.73;;
15240;SDS011;7723;52.170;9.978;2023-02-26T07:33:53;0.60;;;0.50;;
15240;SDS011;7723;52.170;9.978;2023-02-26T07:36:20;1.80;;;0.50;;
15240;SDS011;7723;52.170;9.978;2023-02-26T07:38:47;0.90;;;0.50;;
15240;SDS011;7723;52.170;9.978;2023-02-26T07:41:15;1.67;;;0.67;;
15240;SDS011;7723;52.170;9.978;2023-02-26T07:43:43;0.80;;;0.50;;
15240;SDS011;7723;52.170;9.978;2023-02-26T07:46:10;1.07;;;0.40;;
15240;SDS011;7723;52.170;9.978;2023-02-26T07:48:39;5.67;;;1.10;;
15240;SDS011;7723;52.170;9.978;2023-02-26T07:51:06;1.87;;;0.60;;
15240;SDS011;7723;52.170;9.978;2023-02-26T07:53:35;1.07;;;0.63;;
15240;SDS011;7723;52.170;9.978;2023-02-26T07:56:03;0.70;;;0.30;;
15240;SDS011;7723;52.170;9.978;2023-02-26T07:58:30;2.10;;;0.60;;
15240;SDS011;7723;52.170;9.978;2023-02-26T08:00:57;1.63;;;0.68;;
15240;SDS011;7723;52.170;9.978;2023-02-26T08:03:24;0.73;;;0.60;;
15240;SDS011;7723;52.170;9.978;2023-02-26T08:05:53;4.20;;;0.80;;
15240;SDS011;7723;52.170;9.978;2023-02-26T08:08:24;0.63;;;0.40;;
15240;SDS011;7723;52.170;9.978;2023-02-26T08:10:51;1.30;;;0.60;;
15240;SDS011;7723;52.170;9.978;2023-02-26T08:13:18;0.60;;;0.50;;
15240;SDS011;7723;52.170;9.978;2023-02-26T08:15:46;3.17;;;1.43;;
15240;SDS011;7723;52.170;9.978;2023-02-26T08:18:13;2.20;;;0.50;;
15240;SDS011;7723;52.170;9.978;2023-02-26T08:20:42;2.77;;;0.43;;
15240;SDS011;7723;52.170;9.978;2023-02-26T08:23:11;0.83;;;0.50;;
15240;SDS011;7723;52.170;9.978;2023-02-26T08:25:38;1.67;;;0.70;;
15240;SDS011;7723;52.170;9.978;2023-02-26T08:28:05;1.50;;;0.45;;
15240;SDS011;7723;52.170;9.978;2023-02-26T08:30:32;1.67;;;0.83;;
15240;SDS011;7723;52.170;9.978;2023-02-26T08:33:00;1.90;;;0.43;;
15240;SDS011;7723;52.170;9.978;2023-02-26T08:35:28;2.35;;;0.60;;
15240;SDS011;7723;52.170;9.978;2023-02-26T08:37:55;1.88;;;0.47;;
15240;SDS011;7723;52.170;9.978;2023-02-26T08:40:24;0.50;;;0.40;;
15240;SDS011;7723;52.170;9.978;2023-02-26T08:42:51;1.00;;;0.40;;
15240;SDS011;7723;52.170;9.978;2023-02-26T08:45:18;1.90;;;0.47;;
15240;SDS011;7723;52.170;9.978;2023-02-26T08:47:45;1.30;;;0.60;;
15240;SDS011;7723;52.170;9.978;2023-02-26T08:50:12;0.37;;;0.30;;
15240;SDS011;7723;52.170;9.978;2023-02-26T08:52:40;0.90;;;0.43;;
15240;SDS011;7723;52.170;9.978;2023-02-26T08:55:07;2.00;;;0.53;;
15240;SDS011;7723;52.170;9.978;2023-02-26T08:57:40;0.57;;;0.33;;
15240;SDS011;7723;52.170;9.978;2023-02-26T09:00:07;0.53;;;0.43;;
15240;SDS011;7723;52.170;9.978;2023-02-26T09:02:36;0.80;;;0.57;;
15240;SDS011;7723;52.170;9.978;2023-02-26T09:05:03;1.03;;;0.40;;
15240;SDS011;7723;52.170;9.978;2023-02-26T09:07:31;1.90;;;0.70;;
15240;SDS011;7723;52.170;9.978;2023-02-26T09:09:58;2.03;;;0.70;;
15240;SDS011;7723;52.170;9.978;2023-02-26T09:12:25;1.33;;;0.57;;
15240;SDS011;7723;52.170;9.978;2023-02-26T09:14:54;1.63;;;0.60;;
15240;SDS011;7723;52.170;9.978;2023-02-26T09:17:23;1.53;;;0.57;;
15240;SDS011;7723;52.170;9.978;2023-02-26T09:19:50;1.10;;;0.67;;
15240;SDS011;7723;52.170;9.978;2023-02-26T09:22:17;1.77;;;0.97;;
15240;SDS011;7723;52.170;9.978;2023-02-26T09:24:45;2.20;;;0.60;;
15240;SDS011;7723;52.170;9.978;2023-02-26T09:27:12;0.50;;;0.47;;
15240;SDS011;7723;52.170;9.978;2023-02-26T09:29:39;1.23;;;0.70;;
15240;SDS011;7723;52.170;9.978;2023-02-26T09:32:08;1.17;;;0.50;;
15240;SDS011;7723;52.170;9.978;2023-02-26T09:34:35;1.50;;;0.60;;
15240;SDS011;7723;52.170;9.978;2023-02-26T09:37:03;1.92;;;0.60;;
15240;SDS011;7723;52.170;9.978;2023-02-26T09:39:31;1.17;;;0.73;;
15240;SDS011;7723;52.170;9.978;2023-02-26T09:42:00;1.27;;;0.68;;
15240;SDS011;7723;52.170;9.978;2023-02-26T09:44:36;1.65;;;0.50;;
15240;SDS011;7723;52.170;9.978;2023-02-26T09:47:04;1.60;;;0.80;;
15240;SDS011;7723;52.170;9.978;2023-02-26T09:49:42;0.63;;;0.50;;
15240;SDS011;7723;52.170;9.978;2023-02-26T09:52:16;1.63;;;0.75;;
15240;SDS011;7723;52.170;9.978;2023-02-26T09:54:48;1.75;;;0.70;;
15240;SDS011;7723;52.170;9.978;2023-02-26T09:57:20;1.58;;;0.70;;
15240;SDS011;7723;52.170;9.978;2023-02-26T09:59:53;2.53;;;0.47;;
15240;SDS011;7723;52.170;9.978;2023-02-26T10:02:23;1.25;;;0.45;;
15240;SDS011;7723;52.170;9.978;2023-02-26T10:04:59;1.30;;;0.73;;
15240;SDS011;7723;52.170;9.978;2023-02-26T10:07:41;1.27;;;0.50;;
15240;SDS011;7723;52.170;9.978;2023-02-26T10:10:15;1.65;;;0.60;;
15240;SDS011;7723;52.170;9.978;2023-02-26T10:12:46;1.95;;;0.50;;
15240;SDS011;7723;52.170;9.978;2023-02-26T10:15:18;3.30;;;0.77;;
15240;SDS011;7723;52.170;9.978;2023-02-26T10:17:53;0.80;;;0.47;;
15240;SDS011;7723;52.170;9.978;2023-02-26T10:20:29;2.47;;;0.73;;
15240;SDS011;7723;52.170;9.978;2023-02-26T10:23:03;3.37;;;1.10;;
15240;SDS011;7723;52.170;9.978;2023-02-26T10:25:39;2.30;;;1.00;;
15240;SDS011;7723;52.170;9.978;2023-02-26T10:28:23;1.95;;;0.50;;
15240;SDS011;7723;52.170;9.978;2023-02-26T10:31:02;4.53;;;1.10;;
15240;SDS011;7723;52.170;9.978;2023-02-26T10:33:35;0.60;;;0.35;;
15240;SDS011;7723;52.170;9.978;2023-02-26T10:36:08;3.30;;;0.83;;
15240;SDS011;7723;52.170;9.978;2023-02-26T10:38:41;1.08;;;0.40;;
15240;SDS011;7723;52.170;9.978;2023-02-26T10:41:13;2.00;;;0.60;;
15240;SDS011;7723;52.170;9.978;2023-02-26T10:43:46;0.57;;;0.50;;
15240;SDS011;7723;52.170;9.978;2023-02-26T10:46:17;1.77;;;0.83;;
15240;SDS011;7723;52.170;9.978;2023-02-26T10:48:57;3.70;;;0.93;;
15240;SDS011;7723;52.170;9.978;2023-02-26T10:51:48;0.98;;;0.50;;
15240;SDS011;7723;52.170;9.978;2023-02-26T10:54:18;0.73;;;0.50;;
15240;SDS011;7723;52.170;9.978;2023-02-26T10:56:48;1.87;;;0.60;;
15240;SDS011;7723;52.170;9.978;2023-02-26T10:59:15;1.73;;;0.90;;
15240;SDS011;7723;52.170;9.978;2023-02-26T11:01:43;0.73;;;0.37;;
15240;SDS011;7723;52.170;9.978;2023-02-26T11:04:13;1.67;;;0.40;;
15240;SDS011;7723;52.170;9.978;2023-02-26T11:06:45;0.73;;;0.40;;
15240;SDS011;7723;52.170;9.978;2023-02-26T11:09:18;1.00;;;0.50;;
15240;SDS011;7723;52.170;9.978;2023-02-26T11:11:50;0.70;;;0.30;;
15240;SDS011;7723;52.170;9.978;2023-02-26T11:14:19;1.40;;;0.63;;
15240;SDS011;7723;52.170;9.978;2023-02-26T11:16:48;1.00;;;0.60;;
15240;SDS011;7723;52.170;9.978;2023-02-26T11:19:22;1.50;;;0.50;;
15240;SDS011;7723;52.170;9.978;2023-02-26T11:21:53;1.50;;;0.73;;
15240;SDS011;7723;52.170;9.978;2023-02-26T11:24:22;0.73;;;0.40;;
15240;SDS011;7723;52.170;9.978;2023-02-26T11:26:55;0.83;;;0.40;;
15240;SDS011;7723;52.170;9.978;2023-02-26T11:29:24;0.77;;;0.40;;
15240;SDS011;7723;52.170;9.978;2023-02-26T11:31:51;0.43;;;0.37;;
15240;SDS011;7723;52.170;9.978;2023-02-26T11:34:24;0.85;;;0.47;;
15240;SDS011;7723;52.170;9.978;2023-02-26T11:36:52;3.43;;;1.40;;
15240;SDS011;7723;52.170;9.978;2023-02-26T11:39:23;2.77;;;0.70;;
15240;SDS011;7723;52.170;9.978;2023-02-26T11:41:52;1.90;;;0.60;;
15240;SDS011;7723;52.170;9.978;2023-02-26T11:44:25;1.73;;;0.40;;
15240;SDS011;7723;52.170;9.978;2023-02-26T11:47:00;0.73;;;0.50;;
15240;SDS011;7723;52.170;9.978;2023-02-26T11:49:31;2.10;;;0.50;;
15240;SDS011;7723;52.170;9.978;2023-02-26T11:52:01;0.83;;;0.50;;
15240;SDS011;7723;52.170;9.978;2023-02-26T11:54:31;1.07;;;0.37;;
15240;SDS011;7723;52.170;9.978;2023-02-26T11:57:01;1.10;;;0.47;;
15240;SDS011;7723;52.170;9.978;2023-02-26T11:59:32;0.40;;;0.40;;
15240;SDS011;7723;52.170;9.978;2023-02-26T12:02:00;1.37;;;0.40;;
15240;SDS011;7723;52.170;9.978;2023-02-26T12:04:32;1.33;;;0.40;;
15240;SDS011;7723;52.170;9.978;2023-02-26T12:06:59;1.23;;;0.60;;
15240;SDS011;7723;52.170;9.978;2023-02-26T12:09:26;1.35;;;0.32;;
15240;SDS011;7723;52.170;9.978;2023-02-26T12:11:58;0.45;;;0.22;;
15240;SDS011;7723;52.170;9.978;2023-02-26T12:14:37;0.68;;;0.32;;
15240;SDS011;7723;52.170;9.978;2023-02-26T12:17:17;1.60;;;0.50;;
15240;SDS011;7723;52.170;9.978;2023-02-26T12:19:56;2.60;;;0.40;;
15240;SDS011;7723;52.170;9.978;2023-02-26T12:22:42;0.67;;;0.57;;
15240;SDS011;7723;52.170;9.978;2023-02-26T12:25:26;0.40;;;0.40;;
15240;SDS011;7723;52.170;9.978;2023-02-26T12:28:12;0.70;;;0.32;;
15240;SDS011;7723;52.170;9.978;2023-02-26T12:31:00;0.43;;;0.30;;
15240;SDS011;7723;52.170;9.978;2023-02-26T12:33:42;1.58;;;0.30;;
15240;SDS011;7723;52.170;9.978;2023-02-26T12:36:20;1.50;;;0.53;;
15240;SDS011;7723;52.170;9.978;2023-02-26T12:38:56;1.17;;;0.40;;
15240;SDS011;7723;52.170;9.978;2023-02-26T12:41:36;0.67;;;0.40;;
15240;SDS011;7723;52.170;9.978;2023-02-26T12:44:17;0.70;;;0.40;;
15240;SDS011;7723;52.170;9.978;2023-02-26T12:46:57;0.77;;;0.40;;
15240;SDS011;7723;52.170;9.978;2023-02-26T12:52:37;0.55;;;0.30;;
15240;SDS011;7723;52.170;9.978;2023-02-26T12:55:20;1.03;;;0.27;;
15240;SDS011;7723;52.170;9.978;2023-02-26T12:58:05;1.43;;;0.40;;
15240;SDS011;7723;52.170;9.978;2023-02-26T13:00:53;0.40;;;0.30;;
15240;SDS011;7723;52.170;9.978;2023-02-26T13:03:36;0.87;;;0.40;;
15240;SDS011;7723;52.170;9.978;2023-02-26T13:06:31;0.40;;;0.20;;
15240;SDS011;7723;52.170;9.978;2023-02-26T13:09:19;1.70;;;0.37;;
15240;SDS011;7723;52.170;9.978;2023-02-26T13:11:58;0.40;;;0.27;;
15240;SDS011;7723;52.170;9.978;2023-02-26T13:14:36;0.38;;;0.20;;
15240;SDS011;7723;52.170;9.978;2023-02-26T13:17:19;1.40;;;0.30;;
15240;SDS011;7723;52.170;9.978;2023-02-26T13:19:52;0.60;;;0.23;;
15240;SDS011;7723;52.170;9.978;2023-02-26T13:22:23;0.40;;;0.20;;
15240;SDS011;7723;52.170;9.978;2023-02-26T13:24:58;0.20;;;0.20;;
15240;SDS011;7723;52.170;9.978;2023-02-26T13:27:30;1.87;;;0.37;;
15240;SDS011;7723;52.170;9.978;2023-02-26T13:30:17;0.97;;;0.20;;
15240;SDS011;7723;52.170;9.978;2023-02-26T13:32:49;0.40;;;0.20;;
15240;SDS011;7723;52.170;9.978;2023-02-26T13:35:20;1.00;;;0.37;;
15240;SDS011;7723;52.170;9.978;2023-02-26T13:37:53;2.30;;;0.50;;
15240;SDS011;7723;52.170;9.978;2023-02-26T13:40:40;0.80;;;0.40;;
15240;SDS011;7723;52.170;9.978;2023-02-26T13:43:15;0.83;;;0.20;;
15240;SDS011;7723;52.170;9.978;2023-02-26T13:45:52;3.15;;;0.43;;
15240;SDS011;7723;52.170;9.978;2023-02-26T13:48:31;0.37;;;0.20;;
15240;SDS011;7723;52.170;9.978;2023-02-26T13:51:06;0.75;;;0.40;;
15240;SDS011;7723;52.170;9.978;2023-02-26T13:53:47;1.40;;;0.50;;
15240;SDS011;7723;52.170;9.978;2023-02-26T13:56:21;0.77;;;0.50;;
15240;SDS011;7723;52.170;9.978;2023-02-26T13:59:22;2.10;;;0.37;;
15240;SDS011;7723;52.170;9.978;2023-02-26T14:01:55;1.10;;;0.30;;
15240;SDS011;7723;52.170;9.978;2023-02-26T14:04:27;0.60;;;0.30;;
15240;SDS011;7723;52.170;9.978;2023-02-26T14:06:56;0.17;;;0.13;;
15240;SDS011;7723;52.170;9.978;2023-02-26T14:09:35;0.33;;;0.20;;
15240;SDS011;7723;52.170;9.978;2023-02-26T14:12:29;0.50;;;0.20;;
15240;SDS011;7723;52.170;9.978;2023-02-26T14:15:26;0.20;;;0.20;;
15240;SDS011;7723;52.170;9.978;2023-02-26T14:18:01;1.80;;;0.37;;
15240;SDS011;7723;52.170;9.978;2023-02-26T14:20:30;1.55;;;0.45;;
15240;SDS011;7723;52.170;9.978;2023-02-26T14:23:13;0.83;;;0.60;;
15240;SDS011;7723;52.170;9.978;2023-02-26T14:26:02;0.73;;;0.28;;
15240;SDS011;7723;52.170;9.978;2023-02-26T14:28:39;1.10;;;0.20;;
15240;SDS011;7723;52.170;9.978;2023-02-26T14:31:13;0.30;;;0.20;;
15240;SDS011;7723;52.170;9.978;2023-02-26T14:33:44;0.70;;;0.40;;
15240;SDS011;7723;52.170;9.978;2023-02-26T14:36:20;0.73;;;0.27;;
15240;SDS011;7723;52.170;9.978;2023-02-26T14:38:56;0.30;;;0.30;;
15240;SDS011;7723;52.170;9.978;2023-02-26T14:41:27;0.55;;;0.10;;
15240;SDS011;7723;52.170;9.978;2023-02-26T14:44:00;0.85;;;0.45;;
15240;SDS011;7723;52.170;9.978;2023-02-26T14:46:30;1.25;;;0.40;;
15240;SDS011;7723;52.170;9.978;2023-02-26T14:49:00;0.82;;;0.20;;
15240;SDS011;7723;52.170;9.978;2023-02-26T14:51:32;2.28;;;0.47;;
15240;SDS011;7723;52.170;9.978;2023-02-26T14:54:11;0.45;;;0.40;;
15240;SDS011;7723;52.170;9.978;2023-02-26T14:56:53;1.60;;;0.30;;
15240;SDS011;7723;52.170;9.978;2023-02-26T14:59:35;0.85;;;0.40;;
15240;SDS011;7723;52.170;9.978;2023-02-26T15:02:25;0.20;;;0.20;;
15240;SDS011;7723;52.170;9.978;2023-02-26T15:05:16;3.05;;;0.50;;
15240;SDS011;7723;52.170;9.978;2023-02-26T15:07:55;1.30;;;0.50;;
15240;SDS011;7723;52.170;9.978;2023-02-26T15:10:38;0.70;;;0.32;;
15240;SDS011;7723;52.170;9.978;2023-02-26T15:13:19;0.68;;;0.20;;
15240;SDS011;7723;52.170;9.978;2023-02-26T15:16:01;2.00;;;0.50;;
15240;SDS011;7723;52.170;9.978;2023-02-26T15:18:41;2.20;;;0.40;;
15240;SDS011;7723;52.170;9.978;2023-02-26T15:21:20;0.30;;;0.30;;
15240;SDS011;7723;52.170;9.978;2023-02-26T15:23:54;1.52;;;0.38;;
15240;SDS011;7723;52.170;9.978;2023-02-26T15:26:24;0.70;;;0.27;;
15240;SDS011;7723;52.170;9.978;2023-02-26T15:28:53;0.40;;;0.30;;
15240;SDS011;7723;52.170;9.978;2023-02-26T15:31:29;0.30;;;0.30;;
15240;SDS011;7723;52.170;9.978;2023-02-26T15:33:59;1.20;;;0.30;;
15240;SDS011;7723;52.170;9.978;2023-02-26T15:36:27;1.27;;;0.40;;